Time;durP1;ratioP1;P1;durP2;ratioP2;P2;SDS_P1;SDS_P2;PMS_P1;PMS_P2;Temp;Humidity;BMP_temperature;BMP_pressure;BME280_temperature;BME280_humidity;BME280_pressure;Samples;Min_cycle;Max_cycle;Signal;HPM_P1;HPM_P2
2023/12/22 00:01:08;;;;;;;15.05;4.72;;;10.70;99.90;;;;;;5115316;28;20186;-60
2023/12/22 00:03:33;;;;;;;13.85;4.18;;;10.70;99.90;;;;;;5114910;28;20178;-60
2023/12/22 00:05:59;;;;;;;13.50;4.03;;;10.60;99.90;;;;;;5114986;28;20177;-60
2023/12/22 00:08:25;;;;;;;13.65;3.55;;;10.60;99.90;;;;;;5115176;28;20180;-60
2023/12/22 00:10:50;;;;;;;14.23;3.33;;;10.60;99.90;;;;;;5114900;28;20195;-60
2023/12/22 00:13:16;;;;;;;15.10;3.38;;;10.50;99.90;;;;;;5115126;28;20203;-60
2023/12/22 00:15:45;;;;;;;15.18;3.70;;;10.60;99.90;;;;;;5115341;28;20165;-60
2023/12/22 00:18:10;;;;;;;11.10;3.70;;;10.50;99.90;;;;;;5114863;28;20710;-61
2023/12/22 00:20:36;;;;;;;14.40;3.20;;;10.40;99.90;;;;;;5115127;28;20173;-60
2023/12/22 00:23:02;;;;;;;12.07;3.10;;;10.30;99.90;;;;;;5114974;28;20639;-61
2023/12/22 00:25:27;;;;;;;7.75;2.70;;;10.30;99.90;;;;;;5114891;28;20633;-60
2023/12/22 00:27:53;;;;;;;14.80;2.78;;;10.30;99.90;;;;;;5114808;28;20189;-60
2023/12/22 00:30:19;;;;;;;10.38;3.47;;;10.30;99.90;;;;;;5114755;28;20170;-60
2023/12/22 00:32:44;;;;;;;12.80;3.80;;;10.20;99.90;;;;;;5114765;28;20173;-60
2023/12/22 00:35:10;;;;;;;14.13;4.50;;;10.20;99.90;;;;;;5114721;28;20173;-60
2023/12/22 00:37:36;;;;;;;13.27;3.47;;;10.20;99.90;;;;;;5114531;28;20231;-60
2023/12/22 00:40:04;;;;;;;16.77;3.65;;;10.20;99.90;;;;;;5114595;28;20184;-60
2023/12/22 00:42:30;;;;;;;15.43;3.63;;;10.20;99.90;;;;;;5114504;28;20646;-60
2023/12/22 00:44:55;;;;;;;14.88;4.45;;;10.20;99.90;;;;;;5114576;28;20212;-60
2023/12/22 00:47:21;;;;;;;13.02;4.22;;;10.30;99.90;;;;;;5113947;28;20181;-60
2023/12/22 00:49:46;;;;;;;16.38;4.18;;;10.40;99.90;;;;;;5114478;28;20174;-60
2023/12/22 00:52:12;;;;;;;18.27;5.97;;;10.40;99.90;;;;;;5114380;28;20634;-60
2023/12/22 00:54:38;;;;;;;21.83;4.57;;;10.40;99.90;;;;;;5114416;28;20248;-60
2023/12/22 00:57:04;;;;;;;20.40;6.55;;;10.50;99.90;;;;;;5114213;28;20207;-60
2023/12/22 00:59:30;;;;;;;17.95;6.28;;;10.40;99.90;;;;;;5114025;28;20169;-60
2023/12/22 01:01:55;;;;;;;15.48;4.63;;;10.50;99.90;;;;;;5114272;28;20273;-60
2023/12/22 01:04:21;;;;;;;15.63;5.03;;;10.40;99.90;;;;;;5113926;28;20184;-60
2023/12/22 01:06:46;;;;;;;18.17;4.60;;;10.40;99.90;;;;;;5114187;28;20181;-60
2023/12/22 01:09:12;;;;;;;18.25;4.53;;;10.50;99.90;;;;;;5113909;28;20564;-60
2023/12/22 01:11:38;;;;;;;15.00;3.53;;;10.50;99.90;;;;;;5114157;28;20177;-60
2023/12/22 01:14:03;;;;;;;11.30;3.38;;;10.50;99.90;;;;;;5114053;28;20201;-60
2023/12/22 01:16:29;;;;;;;16.95;3.47;;;10.50;99.90;;;;;;5113996;28;20586;-60
2023/12/22 01:18:54;;;;;;;11.35;3.15;;;10.50;99.90;;;;;;5113961;28;20200;-60
2023/12/22 01:21:20;;;;;;;16.58;4.15;;;10.50;99.90;;;;;;5113807;28;20538;-60
2023/12/22 01:23:46;;;;;;;13.30;4.47;;;10.50;99.90;;;;;;5113754;28;20176;-61
2023/12/22 01:26:11;;;;;;;15.02;3.88;;;10.60;99.90;;;;;;5113981;28;20173;-60
2023/12/22 01:28:37;;;;;;;12.93;3.90;;;10.60;99.90;;;;;;5113957;28;20184;-60
2023/12/22 01:31:03;;;;;;;16.98;4.15;;;10.60;99.90;;;;;;5113505;28;20188;-60
2023/12/22 01:33:29;;;;;;;15.85;3.72;;;10.70;99.90;;;;;;5113892;28;20259;-60
2023/12/22 01:35:55;;;;;;;18.63;4.57;;;10.70;99.90;;;;;;5113821;28;20184;-60
2023/12/22 01:38:21;;;;;;;15.30;4.68;;;10.80;99.90;;;;;;5113806;28;20201;-60
2023/12/22 01:40:47;;;;;;;15.25;4.18;;;10.70;99.90;;;;;;5113742;28;20226;-60
2023/12/22 01:43:16;;;;;;;13.65;3.90;;;10.70;99.90;;;;;;5113809;28;20238;-60
2023/12/22 01:45:46;;;;;;;15.25;4.03;;;10.70;99.90;;;;;;5113742;28;20626;-60
2023/12/22 01:48:11;;;;;;;14.50;4.07;;;10.70;99.90;;;;;;5113705;28;20268;-60
2023/12/22 01:50:39;;;;;;;11.55;3.90;;;10.70;99.90;;;;;;5113746;28;20648;-60
2023/12/22 01:53:04;;;;;;;20.73;5.30;;;10.60;99.90;;;;;;5113738;28;20269;-61
2023/12/22 01:55:30;;;;;;;16.50;4.07;;;10.70;99.90;;;;;;5113781;28;20257;-60
2023/12/22 01:57:56;;;;;;;16.02;4.38;;;10.70;99.90;;;;;;5114439;28;20209;-60
2023/12/22 02:00:22;;;;;;;15.00;4.28;;;10.70;99.90;;;;;;5117720;28;20177;-60
2023/12/22 02:02:48;;;;;;;14.50;4.38;;;10.70;99.90;;;;;;5117608;28;20195;-60
2023/12/22 02:05:14;;;;;;;13.60;4.03;;;10.70;99.90;;;;;;5117637;28;20177;-60
2023/12/22 02:07:43;;;;;;;10.80;3.35;;;10.70;99.90;;;;;;5117224;28;20195;-60
2023/12/22 02:10:09;;;;;;;13.50;3.47;;;10.60;99.90;;;;;;5117573;28;20170;-60
2023/12/22 02:12:39;;;;;;;11.32;3.85;;;10.50;99.90;;;;;;5117492;28;20572;-60
2023/12/22 02:15:05;;;;;;;16.85;4.40;;;10.50;99.90;;;;;;5117450;28;20222;-60
2023/12/22 02:17:58;;;;;;;17.40;3.67;;;10.60;99.90;;;;;;5117208;28;20189;-59
2023/12/22 02:20:24;;;;;;;13.18;3.38;;;10.50;99.90;;;;;;5117443;28;20161;-60
2023/12/22 02:22:53;;;;;;;12.30;3.38;;;10.50;99.90;;;;;;5117236;28;20619;-60
2023/12/22 02:25:19;;;;;;;14.60;3.05;;;10.30;99.90;;;;;;5117113;28;20177;-60
2023/12/22 02:27:52;;;;;;;11.70;3.50;;;10.40;99.90;;;;;;5117208;28;20170;-60
2023/12/22 02:30:29;;;;;;;12.95;3.05;;;10.40;99.90;;;;;;5117208;28;20608;-60
2023/12/22 02:33:01;;;;;;;11.60;2.80;;;10.50;99.90;;;;;;5117110;28;20157;-60
2023/12/22 02:35:29;;;;;;;10.25;2.72;;;10.40;99.90;;;;;;5117095;28;20184;-61
2023/12/22 02:37:59;;;;;;;9.82;2.60;;;10.30;99.90;;;;;;5116918;28;20201;-60
2023/12/22 02:40:25;;;;;;;8.75;2.78;;;10.40;99.90;;;;;;5116878;28;20185;-60
2023/12/22 02:42:52;;;;;;;13.07;2.83;;;10.40;99.90;;;;;;5116855;28;20554;-60
2023/12/22 02:45:19;;;;;;;8.85;3.03;;;10.40;99.90;;;;;;5116866;28;20173;-60
2023/12/22 02:47:46;;;;;;;9.90;3.28;;;10.40;99.90;;;;;;5116862;28;20170;-61
2023/12/22 02:50:13;;;;;;;10.13;2.92;;;10.40;99.90;;;;;;5116859;27;20181;-60
2023/12/22 02:52:39;;;;;;;10.60;3.22;;;10.40;99.90;;;;;;5116632;28;20196;-60
2023/12/22 02:55:06;;;;;;;12.02;2.80;;;10.40;99.90;;;;;;5116694;28;20345;-60
2023/12/22 02:57:31;;;;;;;7.70;2.88;;;10.30;99.90;;;;;;5116550;27;20205;-60
2023/12/22 02:59:58;;;;;;;15.90;4.07;;;10.40;99.90;;;;;;5116855;28;20252;-60
2023/12/22 03:02:23;;;;;;;10.52;3.60;;;10.30;99.90;;;;;;5116488;28;20174;-60
2023/12/22 03:04:49;;;;;;;13.27;3.90;;;10.30;99.90;;;;;;5116517;28;20573;-60
2023/12/22 03:07:15;;;;;;;12.30;4.10;;;10.30;99.90;;;;;;5116247;28;20708;-60
2023/12/22 03:09:42;;;;;;;14.52;3.55;;;10.20;99.90;;;;;;5115868;28;20174;-60
2023/12/22 03:12:08;;;;;;;13.45;3.72;;;10.30;99.90;;;;;;5116346;28;20677;-60
2023/12/22 03:14:34;;;;;;;13.43;4.15;;;10.30;99.90;;;;;;5116101;28;20264;-60
2023/12/22 03:17:01;;;;;;;15.88;4.53;;;10.30;99.90;;;;;;5116198;27;20259;-61
2023/12/22 03:19:27;;;;;;;16.77;4.65;;;10.30;99.90;;;;;;5116202;28;20177;-60
2023/12/22 03:21:52;;;;;;;19.77;4.88;;;10.20;99.90;;;;;;5116067;28;20688;-60
2023/12/22 03:24:19;;;;;;;21.30;5.70;;;10.20;99.90;;;;;;5116087;28;20173;-60
2023/12/22 03:26:46;;;;;;;16.63;4.35;;;10.20;99.90;;;;;;5116143;28;20623;-60
2023/12/22 03:29:12;;;;;;;20.60;5.13;;;10.30;99.90;;;;;;5116042;28;20256;-60
2023/12/22 03:31:37;;;;;;;13.52;4.40;;;10.20;99.90;;;;;;5116250;28;20212;-61
2023/12/22 03:34:03;;;;;;;20.05;4.93;;;10.20;99.90;;;;;;5115874;28;20217;-60
2023/12/22 03:36:29;;;;;;;19.20;4.72;;;10.10;99.90;;;;;;5115915;28;20200;-60
2023/12/22 03:38:54;;;;;;;17.77;4.97;;;10.10;99.90;;;;;;5116015;28;20200;-60
2023/12/22 03:41:20;;;;;;;12.05;4.00;;;10.10;99.90;;;;;;5115682;28;20196;-61
2023/12/22 03:43:46;;;;;;;16.65;4.28;;;10.10;99.90;;;;;;5115719;28;20180;-60
2023/12/22 03:46:11;;;;;;;13.75;4.30;;;10.10;99.90;;;;;;5115725;28;20572;-60
2023/12/22 03:48:37;;;;;;;12.52;3.97;;;10.00;99.90;;;;;;5115295;28;20181;-60
2023/12/22 03:51:03;;;;;;;17.92;5.18;;;10.00;99.90;;;;;;5115596;28;20169;-60
2023/12/22 03:53:29;;;;;;;14.98;4.32;;;9.90;99.90;;;;;;5115871;28;20177;-60
2023/12/22 03:55:55;;;;;;;16.05;4.65;;;9.90;99.90;;;;;;5115473;28;20173;-60
2023/12/22 03:58:20;;;;;;;16.30;4.35;;;10.00;99.90;;;;;;5115407;28;20196;-60
2023/12/22 04:00:47;;;;;;;17.85;4.68;;;9.90;99.90;;;;;;5115366;28;20173;-60
2023/12/22 04:03:13;;;;;;;19.42;4.78;;;9.80;99.90;;;;;;5115273;28;20615;-61
2023/12/22 04:05:38;;;;;;;18.25;5.00;;;9.70;99.90;;;;;;5115254;28;20178;-61
2023/12/22 04:08:05;;;;;;;21.70;5.38;;;9.80;99.90;;;;;;5115237;28;20179;-60
2023/12/22 04:10:31;;;;;;;20.13;5.32;;;9.80;99.90;;;;;;5115190;28;20192;-60
2023/12/22 04:12:56;;;;;;;18.77;4.70;;;9.80;99.90;;;;;;5114818;28;20339;-60
2023/12/22 04:15:22;;;;;;;22.75;5.40;;;9.80;99.90;;;;;;5115362;28;20222;-60
2023/12/22 04:17:48;;;;;;;22.73;6.00;;;9.80;99.90;;;;;;5114735;28;20284;-61
2023/12/22 04:20:13;;;;;;;20.40;5.28;;;9.70;99.90;;;;;;5114534;28;20264;-61
2023/12/22 04:22:39;;;;;;;19.10;5.45;;;9.70;99.90;;;;;;5114690;28;20756;-61
2023/12/22 04:25:06;;;;;;;29.58;6.85;;;9.80;99.90;;;;;;5114951;28;20177;-60
2023/12/22 04:27:31;;;;;;;21.67;5.45;;;9.90;99.90;;;;;;5114844;28;20185;-60
2023/12/22 04:29:57;;;;;;;23.58;4.97;;;9.80;99.90;;;;;;5114868;28;20237;-60
2023/12/22 04:32:23;;;;;;;18.45;5.28;;;9.80;99.90;;;;;;5114801;28;20669;-61
2023/12/22 04:34:48;;;;;;;23.33;5.45;;;9.80;99.90;;;;;;5114679;28;20209;-61
2023/12/22 04:37:14;;;;;;;27.50;6.25;;;9.80;99.90;;;;;;5114569;28;20584;-61
2023/12/22 04:39:40;;;;;;;25.55;6.32;;;9.90;99.90;;;;;;5114334;28;20282;-60
2023/12/22 04:42:06;;;;;;;24.48;5.78;;;9.80;99.90;;;;;;5114328;28;20652;-63
2023/12/22 04:44:31;;;;;;;22.52;5.15;;;9.80;99.90;;;;;;5114539;28;20641;-60
2023/12/22 04:46:57;;;;;;;21.95;5.95;;;9.80;99.90;;;;;;5114791;28;20177;-60
2023/12/22 04:49:22;;;;;;;29.10;6.35;;;9.70;99.90;;;;;;5114490;28;20330;-61
2023/12/22 04:51:48;;;;;;;20.27;5.18;;;9.70;99.90;;;;;;5114432;28;20735;-60
2023/12/22 04:54:14;;;;;;;19.63;6.05;;;9.60;99.90;;;;;;5114342;28;20311;-61
2023/12/22 04:56:39;;;;;;;29.90;6.38;;;9.70;99.90;;;;;;5114336;28;20173;-60
2023/12/22 04:59:05;;;;;;;25.45;7.32;;;9.80;99.90;;;;;;5114229;28;20197;-60
2023/12/22 05:01:31;;;;;;;25.20;8.43;;;9.80;99.90;;;;;;5113997;28;20181;-60
2023/12/22 05:03:56;;;;;;;28.42;8.05;;;9.80;99.90;;;;;;5114269;28;20176;-60
2023/12/22 05:06:22;;;;;;;27.55;8.05;;;10.00;99.90;;;;;;5114336;28;20489;-60
2023/12/22 05:08:48;;;;;;;30.50;7.28;;;10.00;99.90;;;;;;5114197;28;20181;-60
2023/12/22 05:11:13;;;;;;;26.08;7.50;;;9.90;99.90;;;;;;5114439;28;20181;-60
2023/12/22 05:13:40;;;;;;;25.33;6.43;;;9.90;99.90;;;;;;5114115;28;20174;-60
2023/12/22 05:16:05;;;;;;;24.70;6.07;;;10.00;99.90;;;;;;5114121;28;20197;-60
2023/12/22 05:18:31;;;;;;;25.77;7.10;;;10.10;99.90;;;;;;5113943;28;20232;-60
2023/12/22 05:20:57;;;;;;;27.75;6.88;;;10.10;99.90;;;;;;5114048;28;20220;-60
2023/12/22 05:23:22;;;;;;;23.17;6.22;;;10.20;99.90;;;;;;5114194;28;20777;-61
2023/12/22 05:25:48;;;;;;;27.52;6.18;;;10.20;99.90;;;;;;5113400;28;20248;-60
2023/12/22 05:28:14;;;;;;;26.50;6.25;;;10.20;99.90;;;;;;5113691;28;20181;-60
2023/12/22 05:30:39;;;;;;;24.60;6.93;;;10.30;99.90;;;;;;5114240;28;20205;-60
2023/12/22 05:33:05;;;;;;;25.38;6.93;;;10.30;99.90;;;;;;5116361;28;20165;-60
2023/12/22 05:35:31;;;;;;;22.73;5.85;;;10.40;99.90;;;;;;5117951;28;20180;-60
2023/12/22 05:37:56;;;;;;;25.98;6.07;;;10.30;99.90;;;;;;5118045;28;20204;-60
2023/12/22 05:40:22;;;;;;;26.08;6.30;;;10.30;99.90;;;;;;5118126;28;20228;-61
2023/12/22 05:42:48;;;;;;;21.67;6.38;;;10.40;99.90;;;;;;5117862;28;20178;-61
2023/12/22 05:45:14;;;;;;;25.00;5.75;;;10.50;99.90;;;;;;5117742;28;20187;-60
2023/12/22 05:47:40;;;;;;;21.90;6.60;;;10.50;99.90;;;;;;5117945;28;20173;-60
2023/12/22 05:50:07;;;;;;;21.80;5.93;;;10.50;99.90;;;;;;5117927;28;20522;-60
2023/12/22 05:52:32;;;;;;;18.42;6.75;;;10.60;99.90;;;;;;5117630;28;20169;-60
2023/12/22 05:54:58;;;;;;;21.00;6.30;;;10.60;99.90;;;;;;5117262;28;20630;-60
2023/12/22 05:57:27;;;;;;;16.77;5.93;;;10.50;99.90;;;;;;5117613;28;20197;-60
2023/12/22 05:59:53;;;;;;;20.63;5.38;;;10.50;99.90;;;;;;5117620;28;20260;-60
2023/12/22 06:02:18;;;;;;;17.67;5.78;;;10.60;99.90;;;;;;5115381;28;20260;-60
2023/12/22 06:04:44;;;;;;;20.42;5.72;;;10.60;99.90;;;;;;5117627;28;20252;-61
2023/12/22 06:07:11;;;;;;;16.63;4.82;;;10.60;99.90;;;;;;5117685;28;20185;-60
2023/12/22 06:09:36;;;;;;;18.45;5.05;;;10.70;99.90;;;;;;5117627;28;20173;-60
2023/12/22 06:12:02;;;;;;;13.02;5.03;;;10.80;99.90;;;;;;5117321;28;20261;-60
2023/12/22 06:14:28;;;;;;;19.55;4.75;;;10.80;99.90;;;;;;5117524;28;20193;-60
2023/12/22 06:16:56;;;;;;;16.17;4.95;;;10.70;99.90;;;;;;5117489;28;20165;-60
2023/12/22 06:19:24;;;;;;;18.25;4.85;;;10.70;99.90;;;;;;5117296;28;20169;-60
2023/12/22 06:21:50;;;;;;;18.20;4.70;;;10.90;99.90;;;;;;5116979;28;20225;-60
2023/12/22 06:24:16;;;;;;;13.48;4.13;;;10.90;99.90;;;;;;5117575;28;20656;-60
2023/12/22 06:26:42;;;;;;;16.25;5.15;;;10.80;99.90;;;;;;5117243;28;20256;-60
2023/12/22 06:29:08;;;;;;;15.18;4.70;;;10.80;99.90;;;;;;5117005;28;20546;-61
2023/12/22 06:31:33;;;;;;;14.10;4.53;;;10.80;99.90;;;;;;5117158;28;20165;-60
2023/12/22 06:34:02;;;;;;;16.15;5.10;;;10.70;99.90;;;;;;5117102;28;20230;-60
2023/12/22 06:36:29;;;;;;;14.52;4.22;;;10.80;99.90;;;;;;5116976;28;20212;-60
2023/12/22 06:38:55;;;;;;;21.13;4.55;;;10.60;99.90;;;;;;5116904;28;20292;-60
2023/12/22 06:41:29;;;;;;;16.17;4.45;;;10.70;99.90;;;;;;5116706;28;20212;-60
2023/12/22 06:43:56;;;;;;;17.02;4.80;;;10.80;99.90;;;;;;5115976;28;20172;-60
2023/12/22 06:46:27;;;;;;;14.93;4.22;;;10.80;99.90;;;;;;5116863;28;20169;-60
2023/12/22 06:48:53;;;;;;;18.00;4.72;;;10.80;99.90;;;;;;5116934;28;20165;-60
2023/12/22 06:51:30;;;;;;;20.75;4.30;;;10.80;99.90;;;;;;5116601;28;20173;-60
2023/12/22 06:53:56;;;;;;;19.58;4.65;;;10.80;99.90;;;;;;5116705;28;20239;-60
2023/12/22 06:56:25;;;;;;;18.77;4.90;;;10.60;99.90;;;;;;5116680;28;20173;-60
2023/12/22 06:58:53;;;;;;;19.15;4.68;;;10.60;99.90;;;;;;5116477;28;20251;-60
2023/12/22 07:01:20;;;;;;;19.10;4.32;;;10.50;99.90;;;;;;5116571;28;20216;-60
2023/12/22 07:03:47;;;;;;;14.23;4.30;;;10.40;99.90;;;;;;5116484;28;20512;-60
2023/12/22 07:06:17;;;;;;;15.23;4.55;;;10.40;99.90;;;;;;5116486;28;20588;-60
2023/12/22 07:08:43;;;;;;;18.95;4.40;;;10.30;99.90;;;;;;5116397;28;20165;-60
2023/12/22 07:11:12;;;;;;;16.52;4.88;;;10.30;99.90;;;;;;5116347;28;20534;-60
2023/12/22 07:13:38;;;;;;;13.13;3.88;;;10.30;99.90;;;;;;5116355;28;20634;-60
2023/12/22 07:16:05;;;;;;;17.95;4.05;;;10.20;99.90;;;;;;5116289;28;20200;-60
2023/12/22 07:18:31;;;;;;;12.45;3.92;;;10.20;99.90;;;;;;5116158;28;20193;-60
2023/12/22 07:20:58;;;;;;;15.75;3.45;;;10.30;99.90;;;;;;5116137;28;20180;-60
2023/12/22 07:23:24;;;;;;;13.15;4.03;;;10.20;99.90;;;;;;5116284;28;20213;-60
2023/12/22 07:25:50;;;;;;;8.65;2.92;;;10.20;99.90;;;;;;5116154;28;20169;-60
2023/12/22 07:28:15;;;;;;;14.43;3.78;;;10.20;99.90;;;;;;5116048;28;20527;-60
2023/12/22 07:30:41;;;;;;;14.57;3.53;;;10.30;99.90;;;;;;5115722;28;20180;-60
2023/12/22 07:33:07;;;;;;;13.55;3.13;;;10.30;99.90;;;;;;5115988;28;20264;-60
2023/12/22 07:35:33;;;;;;;12.80;3.20;;;10.00;99.90;;;;;;5115985;28;20173;-60
2023/12/22 07:37:59;;;;;;;7.63;2.97;;;10.10;99.90;;;;;;5115799;28;20542;-60
2023/12/22 07:40:24;;;;;;;13.57;2.90;;;10.10;99.90;;;;;;5115787;28;20526;-60
2023/12/22 07:42:53;;;;;;;9.68;2.67;;;10.10;99.90;;;;;;5115781;28;20169;-60
2023/12/22 07:45:18;;;;;;;9.25;2.90;;;10.00;99.90;;;;;;5115736;28;20564;-60
2023/12/22 07:47:44;;;;;;;9.05;2.70;;;10.00;99.90;;;;;;5115406;28;20181;-59
2023/12/22 07:50:09;;;;;;;9.10;2.53;;;10.20;99.90;;;;;;5114476;28;20179;-60
2023/12/22 07:52:38;;;;;;;7.78;2.75;;;10.00;99.90;;;;;;5115563;28;20192;-60
2023/12/22 07:55:07;;;;;;;7.40;2.50;;;10.00;99.90;;;;;;5115481;28;20230;-60
2023/12/22 07:57:32;;;;;;;7.32;2.63;;;10.00;99.90;;;;;;5115425;28;20232;-60
2023/12/22 07:59:58;;;;;;;8.80;2.20;;;10.10;99.90;;;;;;5115425;28;20215;-60
2023/12/22 08:02:24;;;;;;;8.02;2.72;;;10.10;99.90;;;;;;5115173;28;20177;-59
2023/12/22 08:04:50;;;;;;;9.20;2.60;;;10.20;99.90;;;;;;5115355;28;20173;-60
2023/12/22 08:07:16;;;;;;;8.38;2.70;;;10.20;99.90;;;;;;5115204;28;20177;-60
2023/12/22 08:09:41;;;;;;;4.05;2.40;;;10.20;99.90;;;;;;5115339;28;20221;-60
2023/12/22 08:12:08;;;;;;;5.13;2.35;;;10.10;99.90;;;;;;5113990;28;20181;-60
2023/12/22 08:14:33;;;;;;;6.70;2.60;;;10.20;99.90;;;;;;5115106;28;20626;-60
2023/12/22 08:16:59;;;;;;;5.82;2.30;;;10.20;99.90;;;;;;5115064;28;20177;-60
2023/12/22 08:19:25;;;;;;;5.03;2.47;;;10.20;99.90;;;;;;5114959;28;20174;-59
2023/12/22 08:21:54;;;;;;;5.43;2.40;;;10.30;99.90;;;;;;5114798;28;20233;-60
2023/12/22 08:24:20;;;;;;;6.47;2.85;;;10.40;99.90;;;;;;5114911;28;20182;-60
2023/12/22 08:26:45;;;;;;;6.30;2.65;;;10.40;99.90;;;;;;5114890;28;20529;-59
2023/12/22 08:29:11;;;;;;;4.97;2.40;;;10.50;99.90;;;;;;5114895;28;20209;-59
2023/12/22 08:31:37;;;;;;;6.32;3.08;;;10.40;99.90;;;;;;5113647;28;20200;-60
2023/12/22 08:34:02;;;;;;;7.53;2.95;;;10.40;99.90;;;;;;5114519;28;20250;-59
2023/12/22 08:36:28;;;;;;;5.47;2.90;;;10.60;99.90;;;;;;5115010;28;20215;-60
2023/12/22 08:38:54;;;;;;;6.30;2.78;;;10.50;99.90;;;;;;5114620;28;20233;-60
2023/12/22 08:41:20;;;;;;;5.38;2.60;;;10.50;99.90;;;;;;5114654;28;20181;-59
2023/12/22 08:43:45;;;;;;;5.75;2.55;;;10.60;99.90;;;;;;5114615;28;20177;-60
2023/12/22 08:46:12;;;;;;;7.97;2.72;;;10.60;99.90;;;;;;5114610;28;20209;-60
2023/12/22 08:48:38;;;;;;;5.78;2.50;;;10.50;99.90;;;;;;5114628;28;20216;-60
2023/12/22 08:51:04;;;;;;;6.00;2.60;;;10.60;99.90;;;;;;5114498;28;20173;-60
2023/12/22 08:53:33;;;;;;;7.78;2.65;;;10.60;99.90;;;;;;5114421;28;20522;-59
2023/12/22 08:56:00;;;;;;;9.10;2.80;;;10.70;99.90;;;;;;5114325;28;20186;-59
2023/12/22 08:58:26;;;;;;;4.05;2.90;;;10.70;99.90;;;;;;5114293;28;20672;-59
2023/12/22 09:00:52;;;;;;;8.88;3.50;;;10.70;99.90;;;;;;5114609;28;20209;-60
2023/12/22 09:03:17;;;;;;;10.02;3.20;;;10.70;99.90;;;;;;5113001;28;20648;-59
2023/12/22 09:05:43;;;;;;;5.63;2.67;;;10.70;99.90;;;;;;5113896;28;20177;-60
2023/12/22 09:08:08;;;;;;;5.47;2.70;;;10.70;99.90;;;;;;5113805;28;20534;-60
2023/12/22 09:10:35;;;;;;;6.63;2.30;;;10.70;99.90;;;;;;5114192;28;20177;-59
2023/12/22 09:13:01;;;;;;;7.03;2.40;;;10.70;99.90;;;;;;5114064;28;20199;-60
2023/12/22 09:15:27;;;;;;;6.10;2.58;;;10.80;99.90;;;;;;5113849;28;20173;-60
2023/12/22 09:17:54;;;;;;;8.32;3.00;;;10.90;99.90;;;;;;5113930;28;20673;-59
2023/12/22 09:20:19;;;;;;;8.07;2.75;;;10.90;99.90;;;;;;5113939;28;20181;-59
2023/12/22 09:22:45;;;;;;;7.28;2.58;;;10.90;99.90;;;;;;5114125;28;20247;-60
2023/12/22 09:25:11;;;;;;;9.10;2.80;;;10.90;99.90;;;;;;5114132;28;20526;-60
2023/12/22 09:27:36;;;;;;;6.57;2.30;;;10.80;99.90;;;;;;5112716;28;20185;-60
2023/12/22 09:30:04;;;;;;;6.20;2.67;;;10.90;99.90;;;;;;5113954;28;20174;-60
2023/12/22 09:32:30;;;;;;;9.07;2.80;;;10.90;99.90;;;;;;5114087;28;20181;-59
2023/12/22 09:34:58;;;;;;;6.18;2.45;;;10.90;99.90;;;;;;5113961;28;20561;-59
2023/12/22 09:37:24;;;;;;;9.20;2.60;;;10.90;99.90;;;;;;5113790;28;20283;-60
2023/12/22 09:39:50;;;;;;;8.48;2.53;;;10.80;99.90;;;;;;5114015;28;20213;-60
2023/12/22 09:42:16;;;;;;;8.02;3.38;;;10.90;99.90;;;;;;5113839;28;20177;-60
2023/12/22 09:44:43;;;;;;;9.50;3.17;;;10.90;99.90;;;;;;5113770;28;20215;-59
2023/12/22 09:47:12;;;;;;;8.82;2.75;;;11.10;99.90;;;;;;5113782;28;20636;-60
2023/12/22 09:49:38;;;;;;;7.85;3.00;;;11.00;99.90;;;;;;5113741;28;20555;-60
2023/12/22 09:52:06;;;;;;;6.20;2.10;;;11.00;99.90;;;;;;5113450;28;20660;-60
2023/12/22 09:54:32;;;;;;;8.40;2.58;;;11.10;99.90;;;;;;5113736;28;20173;-59
2023/12/22 09:57:00;;;;;;;5.88;2.40;;;11.20;99.90;;;;;;5113625;28;20181;-60
2023/12/22 09:59:28;;;;;;;7.32;2.63;;;11.30;99.90;;;;;;5113391;28;20201;-60
2023/12/22 10:01:55;;;;;;;6.15;2.17;;;11.30;99.90;;;;;;5113401;28;20706;-60
2023/12/22 10:04:21;;;;;;;5.05;3.10;;;11.30;99.90;;;;;;5113620;28;20200;-59
2023/12/22 10:06:48;;;;;;;11.13;3.15;;;11.30;99.90;;;;;;5113717;28;20615;-60
2023/12/22 10:09:16;;;;;;;6.68;2.88;;;11.30;99.90;;;;;;5113368;28;20242;-60
2023/12/22 10:11:44;;;;;;;7.43;2.90;;;11.40;99.90;;;;;;5113516;28;20165;-60
2023/12/22 10:14:10;;;;;;;8.95;2.90;;;11.40;99.90;;;;;;5113494;28;20647;-60
2023/12/22 10:16:37;;;;;;;8.75;2.67;;;11.40;99.90;;;;;;5113535;28;20169;-60
2023/12/22 10:19:03;;;;;;;5.47;2.00;;;11.50;99.90;;;;;;5113958;28;20189;-60
2023/12/22 10:21:30;;;;;;;6.18;2.25;;;11.40;99.90;;;;;;5116983;28;20194;-59
2023/12/22 10:23:57;;;;;;;8.75;2.08;;;11.50;99.90;;;;;;5117497;28;20161;-60
2023/12/22 10:26:22;;;;;;;5.22;2.20;;;11.60;99.90;;;;;;5117314;28;20174;-59
2023/12/22 10:28:52;;;;;;;5.90;2.00;;;11.60;99.90;;;;;;5117549;28;20184;-59
2023/12/22 10:31:18;;;;;;;6.75;2.33;;;11.70;99.90;;;;;;5117223;28;20177;-59
2023/12/22 10:33:44;;;;;;;7.75;2.33;;;11.70;99.90;;;;;;5117076;28;20182;-60
2023/12/22 10:36:10;;;;;;;7.25;2.30;;;11.70;99.90;;;;;;5116996;28;20181;-60
2023/12/22 10:38:36;;;;;;;6.53;2.40;;;11.80;99.90;;;;;;5116840;28;20205;-60
2023/12/22 10:41:07;;;;;;;6.95;2.35;;;11.80;99.90;;;;;;5116997;28;20260;-60
2023/12/22 10:43:39;;;;;;;4.68;2.28;;;11.70;99.90;;;;;;5116865;28;20180;-59
2023/12/22 10:46:07;;;;;;;5.57;2.08;;;11.70;99.90;;;;;;5116893;28;20622;-59
2023/12/22 10:48:33;;;;;;;6.97;2.15;;;11.60;99.90;;;;;;5116881;28;20169;-59
2023/12/22 10:50:59;;;;;;;7.00;2.22;;;11.50;99.90;;;;;;5116625;28;20222;-60
2023/12/22 10:53:25;;;;;;;7.95;2.92;;;11.50;99.90;;;;;;5116675;28;20177;-59
2023/12/22 10:55:51;;;;;;;6.18;2.15;;;11.50;99.90;;;;;;5116708;28;20252;-60
2023/12/22 10:58:18;;;;;;;6.30;2.30;;;11.60;99.90;;;;;;5116572;28;20555;-60
2023/12/22 11:00:46;;;;;;;5.47;2.45;;;11.50;99.90;;;;;;5116527;28;20234;-60
2023/12/22 11:03:18;;;;;;;6.35;2.60;;;11.50;99.90;;;;;;5116491;28;20173;-59
2023/12/22 11:05:47;;;;;;;7.80;2.53;;;11.50;99.90;;;;;;5116562;28;20488;-60
2023/12/22 11:08:14;;;;;;;7.90;2.53;;;11.50;99.90;;;;;;5116398;28;20185;-59
2023/12/22 11:10:43;;;;;;;4.65;1.92;;;11.50;99.90;;;;;;5116152;28;20168;-60
2023/12/22 11:13:13;;;;;;;8.32;2.38;;;11.40;99.90;;;;;;5116587;28;20605;-59
2023/12/22 11:15:41;;;;;;;5.30;2.58;;;11.40;99.90;;;;;;5116282;28;20177;-60
2023/12/22 11:18:08;;;;;;;6.38;2.50;;;11.40;99.90;;;;;;5116240;28;20200;-59
2023/12/22 11:20:35;;;;;;;4.97;1.90;;;11.50;99.90;;;;;;5116265;28;20653;-60
2023/12/22 11:23:03;;;;;;;4.43;2.17;;;11.50;99.90;;;;;;5116307;28;20232;-59
2023/12/22 11:25:31;;;;;;;7.07;1.90;;;11.50;99.90;;;;;;5116163;28;20563;-59
2023/12/22 11:27:59;;;;;;;5.63;1.73;;;11.40;99.90;;;;;;5115809;28;20172;-59
2023/12/22 11:30:25;;;;;;;4.63;1.60;;;11.40;99.90;;;;;;5115439;28;20177;-59
2023/12/22 11:32:53;;;;;;;5.68;1.83;;;11.30;99.90;;;;;;5115970;28;20173;-59
2023/12/22 11:35:19;;;;;;;5.88;1.80;;;11.40;99.90;;;;;;5116234;28;20204;-59
2023/12/22 11:37:46;;;;;;;7.20;1.70;;;11.50;99.90;;;;;;5115855;28;20646;-59
2023/12/22 11:40:12;;;;;;;6.75;2.08;;;11.50;99.90;;;;;;5115620;28;20230;-59
2023/12/22 11:42:43;;;;;;;6.07;1.35;;;11.60;99.90;;;;;;5115815;28;20613;-59
2023/12/22 11:45:13;;;;;;;4.65;1.55;;;11.70;99.90;;;;;;5115764;28;20261;-60
2023/12/22 11:47:40;;;;;;;5.43;1.60;;;11.70;99.90;;;;;;5115884;28;20177;-60
2023/12/22 11:50:09;;;;;;;3.85;1.48;;;11.80;99.90;;;;;;5115928;28;20201;-59
2023/12/22 11:52:35;;;;;;;3.10;1.25;;;11.90;99.90;;;;;;5115548;28;20200;-59
2023/12/22 11:55:02;;;;;;;3.20;1.30;;;11.80;99.90;;;;;;5115544;28;20224;-60
2023/12/22 11:57:30;;;;;;;3.72;1.30;;;11.90;99.90;;;;;;5115355;28;20240;-59
2023/12/22 12:00:01;;;;;;;5.68;1.30;;;11.90;99.90;;;;;;5115522;28;20183;-60
2023/12/22 12:02:29;;;;;;;3.50;1.25;;;12.00;99.90;;;;;;5115459;28;20162;-59
2023/12/22 12:05:00;;;;;;;6.25;1.75;;;11.90;99.90;;;;;;5115424;28;20169;-59
2023/12/22 12:07:41;;;;;;;5.25;1.48;;;12.00;99.90;;;;;;5115406;28;20165;-59
2023/12/22 12:10:08;;;;;;;6.53;1.40;;;11.90;99.90;;;;;;5115235;28;20173;-60
2023/12/22 12:12:34;;;;;;;5.43;1.60;;;11.90;99.90;;;;;;5115121;28;20186;-60
2023/12/22 12:15:07;;;;;;;6.43;1.90;;;11.90;99.90;;;;;;5115189;28;20184;-60
2023/12/22 12:17:37;;;;;;;6.22;1.85;;;12.00;99.90;;;;;;5115055;28;20190;-60
2023/12/22 12:20:05;;;;;;;5.03;1.80;;;12.00;99.90;;;;;;5115067;28;20298;-59
2023/12/22 12:22:31;;;;;;;6.47;1.88;;;12.00;99.90;;;;;;5115232;27;20217;-59
2023/12/22 12:24:57;;;;;;;5.18;1.52;;;11.90;99.90;;;;;;5115006;28;20192;-60
2023/12/22 12:27:23;;;;;;;6.35;1.60;;;12.00;99.90;;;;;;5115032;28;20177;-60
2023/12/22 12:29:49;;;;;;;9.15;1.70;;;11.90;99.90;;;;;;5114919;28;20174;-59
2023/12/22 12:32:15;;;;;;;7.20;1.92;;;11.90;99.90;;;;;;5114858;28;20170;-59
2023/12/22 12:34:43;;;;;;;4.75;1.80;;;12.00;99.90;;;;;;5114477;28;20181;-59
2023/12/22 12:37:09;;;;;;;3.92;1.35;;;12.00;99.90;;;;;;5114621;28;20173;-60
2023/12/22 12:39:36;;;;;;;5.22;1.70;;;11.90;99.90;;;;;;5114667;28;20180;-60